Alton, TX

1:05 AM CST on January 30, 2015 (GMT -0600)
Val's Kountry Corral | Change Station
CLOSE
Current Station
Personal Weather Station
Location: Mission, TX
Elevation: 135 ft
Nearby Weather Stations

Elev 135 ft 26.21 °N, 98.37 °W | Updated 7 minutes ago

Clear
Clear
64.2 °F
Feels Like 64.2 °F
N
2.2
Wind Variable Wind from ENE

Today
High -- | Low -- °F
--% Chance of Precip.
Yesterday
High -- | Low -- °F
Precip. -- in
7:18 AM 6:14 PM
Waxing Gibbous, 80% visible
Pressure 30.27 in
Visibility 10.0 miles
Clouds Few 4200 ft
Scattered Clouds 5000 ft
Dew Point 63 °F
Humidity 96%
Rainfall 0.00 in
Snow Depth Not available.
UV 0 out of 12
Pollen 8.10 out of 12
Air Quality Not available.
Flu Activity Not available.
METAR KMFE 300653Z AUTO 08007KT 10SM FEW042 SCT050 18/17 A3027 RMK AO2 SLP248 T01830167

More Conditions Fewer Conditions

Pressure 30.27 in
Visibility 10.0 miles
Clouds Few 4200 ft
Scattered Clouds 5000 ft
Dew Point 63 °F
Humidity 96%
Rainfall 0.00 in
Snow Depth Not available.
UV 0 out of 12
Pollen 8.10 out of 12
Air Quality Not available.
Flu Activity Not available.
METAR KMFE 300653Z AUTO 08007KT 10SM FEW042 SCT050 18/17 A3027 RMK AO2 SLP248 T01830167

More Conditions Fewer Conditions

10-Day Weather Forecast

Almanac

Astronomy

Jan. 30, 2015 Rise Set
Actual Time
Civil Twilight
Nautical Twilight
Astronomical Twilight
Moon
Length of Visible Light
Length of Day
Tomorrow will be .
, % of the Moon is Illuminated

Today's Extremes

State Highs State Lows

Community

WunderPhotos

Upload Photos

1,791,724 photos uploaded!

WunderBlogs® & News

Nearby

Air Quality

  Air Quality AQ Index Pollutant
Not available.

Snow Depth

Station Depth Elevation

Earthquake Activity

City Distance Mag. Time & Date
Minimum magnitude displayed is 2.5.

Coastal Water Temperatures

Place Temperature

Nearby Weather Stations